To NAV CANADA Home Page Login to a new session Search on AWWS site Feedback and Comments Disclaimer Vers la page française équivalente Tips FAQ What's new on the site To the Forecasts and Observations / NOTAM section To "File a Flight Plan" website Publications and other links Update of the User's profile FIC Telephone Numbers My Weather Data Folder Route Weather Data Regional Weather Data Local Weather Data To the Forecasts and Observations / NOTAM section
Request Generated 03/28/2017 at 02:16:24 UTC . Weather information available at that time is displayed.

METAR/TAF

GRANDE PRAIRIE/AB    

METAR CYQU 280200Z 01004KT 25SM SCT070 BKN160 03/M02 A2985 RMK AC3AC3
SLP142=
METAR CYQU 280100Z 05005KT 25SM FEW080 SCT120 BKN220 05/M01 A2984 RMK
AC1AC3CI2 SLP138=
METAR CYQU 280000Z 05005KT 20SM FEW080 BKN130 BKN260 05/M02 A2984 RMK
AC2AS3CS2 SLP136=

TAF CYQU 280038Z 2801/2813 05005KT P6SM FEW080 BKN140 BKN260
FM280800 VRB03KT P6SM FEW060 SCT220
RMK NXT FCST BY 280700Z=
Your time UTC time
Weather data provided by Environment Canada and NAV CANADA